Time;durP1;ratioP1;P1;durP2;ratioP2;P2;SDS_P1;SDS_P2;PMS_P1;PMS_P2;Temp;Humidity;BMP_temperature;BMP_pressure;BME280_temperature;BME280_humidity;BME280_pressure;Samples;Min_cycle;Max_cycle;Signal;HPM_P1;HPM_P2
2021/08/27 05:32:49;;;;;;;11.93;5.33;;;;;;;24.69;42.34;100568.52;1830767;76;24764;-69
2021/08/27 05:35:23;;;;;;;17.52;4.95;;;;;;;24.55;42.30;100571.02;1805695;78;21303;-68
2021/08/27 05:37:56;;;;;;;12.53;4.83;;;;;;;24.59;42.61;100568.20;1807075;79;21315;-67
2021/08/27 05:40:29;;;;;;;9.23;5.15;;;;;;;24.58;42.26;100578.08;1805526;77;21205;-71
2021/08/27 05:43:02;;;;;;;15.95;4.75;;;;;;;24.44;42.57;100569.03;1804071;79;21825;-68
2021/08/27 05:45:36;;;;;;;8.98;5.42;;;;;;;24.36;43.06;100573.34;1806608;79;21760;-68
2021/08/27 05:48:09;;;;;;;16.37;8.05;;;;;;;24.33;43.17;100571.09;1807908;78;21223;-70
2021/08/27 05:50:42;;;;;;;74.47;38.60;;;;;;;24.43;43.01;100567.41;1806221;79;21231;-72
2021/08/27 05:53:16;;;;;;;19.50;9.65;;;;;;;24.58;42.50;100577.25;1803882;79;21299;-70
2021/08/27 05:55:49;;;;;;;12.80;5.67;;;;;;;24.71;42.18;100571.80;1802970;79;21283;-71
2021/08/27 05:58:22;;;;;;;13.80;5.78;;;;;;;24.87;41.75;100580.63;1807021;79;21324;-70
2021/08/27 06:00:56;;;;;;;12.28;5.22;;;;;;;25.04;41.37;100572.31;1809700;79;21306;-71
2021/08/27 06:03:29;;;;;;;9.73;5.50;;;;;;;25.24;41.20;100582.27;1802157;78;21282;-72
2021/08/27 06:06:03;;;;;;;9.20;5.42;;;;;;;25.36;40.67;100582.38;1805453;79;21176;-69
2021/08/27 06:08:35;;;;;;;15.35;6.58;;;;;;;25.48;40.40;100584.62;1804654;79;21180;-70
2021/08/27 06:11:08;;;;;;;10.78;5.47;;;;;;;25.68;40.48;100584.36;1804645;79;21314;-71
2021/08/27 06:13:41;;;;;;;;;;;;;;;25.85;39.96;100588.05;1808454;79;21165;-68
2021/08/27 06:16:14;;;;;;;8.50;5.10;;;;;;;25.99;39.70;100599.71;1808630;77;20307;-72
2021/08/27 06:18:47;;;;;;;9.80;5.15;;;;;;;26.21;39.41;100597.36;1813687;77;21330;-71
2021/08/27 06:21:20;;;;;;;10.88;5.65;;;;;;;26.25;39.05;100591.81;1753409;80;21373;-72
2021/08/27 06:23:54;;;;;;;9.93;4.97;;;;;;;26.14;39.39;100579.20;1741547;80;21318;-67
2021/08/27 06:26:28;;;;;;;10.38;5.22;;;;;;;26.02;39.80;100588.53;1734110;80;21298;-70
2021/08/27 06:29:03;;;;;;;12.37;4.85;;;;;;;25.90;39.87;100582.31;1766296;79;21282;-69
2021/08/27 06:31:38;;;;;;;19.73;9.03;;;;;;;25.77;40.22;100593.20;1761146;80;21215;-73
2021/08/27 06:34:12;;;;;;;28.30;13.95;;;;;;;25.69;40.44;100602.09;1761534;79;21294;-68
2021/08/27 06:36:44;;;;;;;12.43;5.60;;;;;;;25.58;40.24;100590.80;1758103;80;21306;-69
2021/08/27 06:39:17;;;;;;;11.93;4.92;;;;;;;25.49;40.69;100580.89;1757682;79;21318;-72
2021/08/27 06:41:51;;;;;;;;;;;;;;;25.44;41.12;100587.45;1760640;80;21307;-70
2021/08/27 06:44:24;;;;;;;7.47;4.95;;;;;;;25.41;41.12;100583.86;1755949;79;20254;-72
2021/08/27 06:46:57;;;;;;;11.38;5.78;;;;;;;25.36;40.52;100577.80;1760767;79;21176;-70
2021/08/27 06:49:31;;;;;;;19.45;9.53;;;;;;;25.48;39.76;100582.47;1755722;80;21274;-70
2021/08/27 06:52:12;;;;;;;15.88;7.00;;;;;;;25.55;39.77;100594.75;1705746;83;21322;-69
2021/08/27 06:54:42;;;;;;;15.23;5.58;;;;;;;25.62;40.12;100583.42;1725121;80;21353;-67
2021/08/27 06:57:17;;;;;;;14.10;7.03;;;;;;;26.01;40.30;100581.52;1760416;79;21373;-71
2021/08/27 06:59:50;;;;;;;;;;;;;;;26.57;38.54;100589.14;1759999;80;21204;-68
2021/08/27 07:02:23;;;;;;;17.90;6.62;;;;;;;26.92;37.63;100583.80;1730191;81;20676;-70
2021/08/27 07:04:57;;;;;;;8.60;5.83;;;;;;;27.00;36.77;100582.11;1754660;80;21439;-65
2021/08/27 07:07:30;;;;;;;10.38;6.83;;;;;;;27.04;36.81;100576.55;1759662;79;21339;-68
2021/08/27 07:10:05;;;;;;;10.98;5.80;;;;;;;27.21;36.90;100584.18;1726860;81;21177;-68
2021/08/27 07:12:38;;;;;;;11.28;5.20;;;;;;;27.32;36.20;100575.81;1721518;81;21359;-74
2021/08/27 07:15:12;;;;;;;11.15;6.35;;;;;;;27.71;35.95;100579.03;1754624;81;21801;-73
2021/08/27 07:17:45;;;;;;;18.82;10.63;;;;;;;28.24;34.59;100597.53;1726240;82;21268;-71
2021/08/27 07:20:18;;;;;;;22.82;10.43;;;;;;;28.56;34.23;100585.13;1755496;80;21274;-73
2021/08/27 07:22:50;;;;;;;;;;;;;;;28.89;33.36;100599.67;1740445;81;21279;-73
2021/08/27 07:25:25;;;;;;;12.75;5.15;;;;;;;29.48;32.43;100594.83;1733621;81;20287;-68
2021/08/27 07:27:57;;;;;;;;;;;;;;;29.82;32.02;100596.34;1726935;81;22252;-76
2021/08/27 07:30:31;;;;;;;9.40;4.72;;;;;;;29.95;31.47;100601.85;1736223;81;20427;-75
2021/08/27 07:33:04;;;;;;;;;;;;;;;29.72;31.33;100596.20;1728590;81;21298;-72
2021/08/27 07:35:37;;;;;;;10.90;5.60;;;;;;;29.52;31.72;100588.41;1723990;81;20317;-74
2021/08/27 07:38:11;;;;;;;12.85;5.40;;;;;;;29.62;31.57;100587.98;1748948;79;21328;-72
2021/08/27 07:40:44;;;;;;;14.87;5.17;;;;;;;29.75;31.62;100605.67;1750043;79;21287;-73
2021/08/27 07:43:17;;;;;;;9.93;5.95;;;;;;;29.80;31.15;100599.02;1749674;81;21307;-72
2021/08/27 07:45:57;;;;;;;12.23;5.20;;;;;;;29.81;31.15;100618.17;1751081;79;21731;-74
2021/08/27 07:48:27;;;;;;;10.45;5.37;;;;;;;29.81;31.37;100602.80;1753253;79;21359;-72
2021/08/27 07:51:00;;;;;;;7.72;4.60;;;;;;;29.71;31.36;100599.95;1749260;79;21220;-75
2021/08/27 07:53:33;;;;;;;;;;;;;;;30.14;30.99;100632.03;1746112;81;21307;-72
2021/08/27 07:56:06;;;;;;;17.85;6.28;;;;;;;30.41;30.25;100606.65;1747210;81;20308;-72
2021/08/27 07:58:39;;;;;;;8.35;4.90;;;;;;;30.44;30.29;100603.44;1748298;81;22332;-76
2021/08/27 08:01:12;;;;;;;7.95;5.15;;;;;;;30.43;29.94;100617.19;1750995;79;21827;-77
2021/08/27 08:03:46;;;;;;;13.48;5.65;;;;;;;30.44;30.03;100619.66;1750925;81;21636;-73
2021/08/27 08:06:19;;;;;;;10.40;4.80;;;;;;;30.36;29.85;100623.34;1749086;81;21406;-72
2021/08/27 08:08:52;;;;;;;16.45;5.87;;;;;;;29.95;30.59;100606.72;1750367;81;22113;-74
2021/08/27 08:11:25;;;;;;;15.38;6.60;;;;;;;29.57;31.42;100615.45;1746317;79;21101;-79
2021/08/27 08:13:59;;;;;;;8.33;5.15;;;;;;;29.05;31.96;100616.34;1750652;81;21289;-78
2021/08/27 08:16:33;;;;;;;13.05;6.28;;;;;;;28.42;33.01;100612.66;1750555;79;21314;-76
2021/08/27 08:19:06;;;;;;;11.88;5.72;;;;;;;27.85;34.02;100608.62;1750410;79;21172;-73
2021/08/27 08:21:40;;;;;;;8.53;5.00;;;;;;;27.73;34.68;100615.92;1747406;81;21790;-72
2021/08/27 08:24:14;;;;;;;15.63;6.03;;;;;;;27.94;34.34;100611.77;1751701;81;21894;-77
2021/08/27 08:26:47;;;;;;;;;;;;;;;28.24;34.30;100614.20;1750541;81;21404;-70
2021/08/27 08:29:20;;;;;;;16.40;6.30;;;;;;;28.58;33.89;100618.56;1751842;79;20287;-71
2021/08/27 08:31:53;;;;;;;11.25;5.55;;;;;;;28.85;33.56;100612.81;1752770;79;21393;-70
2021/08/27 08:34:26;;;;;;;6.12;4.50;;;;;;;28.90;33.17;100610.19;1721639;81;21859;-72
2021/08/27 08:36:59;;;;;;;10.90;5.28;;;;;;;28.82;33.43;100609.80;1755654;79;21176;-73
2021/08/27 08:39:31;;;;;;;;;;;;;;;28.75;33.71;100605.12;1735267;81;21310;-74
2021/08/27 08:42:05;;;;;;;16.87;5.97;;;;;;;28.78;33.69;100596.00;1741621;80;20618;-77
2021/08/27 08:44:38;;;;;;;11.55;5.50;;;;;;;28.88;33.75;100596.16;1744765;80;21880;-74
2021/08/27 08:47:13;;;;;;;9.35;5.15;;;;;;;29.08;33.49;100596.45;1740560;80;21451;-73
2021/08/27 08:49:47;;;;;;;;;;;;;;;29.18;33.33;100596.63;1748091;80;21311;-74
2021/08/27 08:52:22;;;;;;;13.08;5.15;;;;;;;29.23;33.41;100595.88;1743223;80;20215;-75
2021/08/27 08:54:55;;;;;;;11.65;6.15;;;;;;;29.27;33.56;100592.42;1719084;80;21201;-70
2021/08/27 08:57:28;;;;;;;8.95;5.12;;;;;;;29.49;33.28;100601.05;1741684;80;21306;-75
2021/08/27 09:00:06;;;;;;;8.78;4.75;;;;;;;29.61;33.45;100597.69;1741122;80;21333;-70
2021/08/27 09:02:41;;;;;;;15.28;5.80;;;;;;;29.59;33.31;100599.27;1739318;80;21163;-74
2021/08/27 09:05:15;;;;;;;12.55;5.17;;;;;;;29.72;33.38;100595.38;1746865;79;21315;-69
2021/08/27 09:08:10;;;;;;;10.32;5.53;;;;;;;29.87;32.99;100596.93;1756698;79;21302;-72
2021/08/27 09:10:59;;;;;;;27.22;6.67;;;;;;;30.00;32.98;100587.88;1766906;79;21284;-75
2021/08/27 09:13:33;;;;;;;13.13;5.62;;;;;;;30.33;32.42;100592.25;1755229;79;21279;-73
2021/08/27 09:16:08;;;;;;;9.68;5.50;;;;;;;30.85;32.03;100594.27;1733387;81;21330;-78
2021/08/27 09:18:48;;;;;;;24.57;6.83;;;;;;;31.17;31.46;100585.02;1766052;79;21822;-76
2021/08/27 09:21:46;;;;;;;18.07;5.85;;;;;;;31.46;31.32;100572.45;1748402;81;21897;-70
2021/08/27 09:24:25;;;;;;;15.23;5.95;;;;;;;31.82;30.81;100570.93;1737861;80;21311;-72
2021/08/27 09:27:01;;;;;;;9.70;5.08;;;;;;;31.93;30.51;100571.20;1748717;79;21314;-78
2021/08/27 09:29:39;;;;;;;10.48;5.15;;;;;;;32.11;30.44;100577.22;1738681;81;21327;-77
2021/08/27 09:32:32;;;;;;;13.28;5.70;;;;;;;32.28;30.33;100565.59;1734272;81;21193;-71
2021/08/27 09:35:09;;;;;;;10.78;5.37;;;;;;;32.30;29.84;100575.07;1741664;80;21324;-71
2021/08/27 09:37:51;;;;;;;10.70;4.75;;;;;;;31.98;30.17;100572.35;1732197;80;21184;-70
2021/08/27 09:40:29;;;;;;;10.23;6.10;;;;;;;31.75;30.58;100574.97;1733592;80;21190;-73
2021/08/27 09:43:04;;;;;;;12.93;6.28;;;;;;;31.78;30.49;100583.92;1728067;80;21355;-75
2021/08/27 09:45:46;;;;;;;9.68;4.85;;;;;;;31.74;30.59;100597.73;1725843;80;21362;-69
2021/08/27 09:48:19;;;;;;;13.00;5.62;;;;;;;31.66;30.90;100590.11;1738448;80;21381;-70
2021/08/27 09:50:52;;;;;;;;;;;;;;;31.68;30.58;100590.66;1738520;81;21272;-72
2021/08/27 09:53:26;;;;;;;17.40;6.50;;;;;;;31.53;30.93;100577.89;1712181;80;20313;-72
2021/08/27 09:56:01;;;;;;;14.20;5.20;;;;;;;31.21;31.41;100573.15;1741651;80;21312;-77
2021/08/27 09:58:35;;;;;;;10.80;5.47;;;;;;;31.04;32.07;100573.34;1730326;81;21333;-76
2021/08/27 10:01:10;;;;;;;9.15;5.10;;;;;;;30.98;32.38;100581.66;1684559;82;21354;-72
2021/08/27 10:03:43;;;;;;;32.75;6.50;;;;;;;30.92;32.23;100580.84;1726209;81;21309;-75
2021/08/27 10:06:34;;;;;;;11.03;5.58;;;;;;;30.77;32.66;100578.53;1718876;81;22080;-74
2021/08/27 10:09:08;;;;;;;13.70;6.22;;;;;;;30.62;32.72;100588.17;1796199;78;21268;-69
2021/08/27 10:11:42;;;;;;;10.60;5.00;;;;;;;30.35;33.13;100579.86;1787194;78;21182;-71
2021/08/27 10:14:16;;;;;;;11.08;5.22;;;;;;;30.17;33.64;100573.44;1786992;78;21864;-70
2021/08/27 10:16:49;;;;;;;11.20;5.55;;;;;;;29.98;33.96;100581.11;1792608;78;21300;-71
2021/08/27 10:19:23;;;;;;;19.42;5.80;;;;;;;29.83;33.91;100592.56;1787876;78;22303;-78
2021/08/27 10:21:56;;;;;;;;;;;;;;;29.63;34.51;100595.55;1811954;78;21354;-74
2021/08/27 10:24:29;;;;;;;11.90;5.95;;;;;;;29.45;34.82;100581.84;1786399;77;20252;-79
2021/08/27 10:27:02;;;;;;;11.43;5.35;;;;;;;29.32;35.40;100571.45;1801676;78;21212;-72
2021/08/27 10:29:35;;;;;;;;;;;;;;;29.24;35.35;100575.92;1768959;78;21275;-74
2021/08/27 10:32:08;;;;;;;11.73;5.20;;;;;;;29.17;35.56;100582.82;1794929;78;20298;-69
2021/08/27 10:34:44;;;;;;;16.62;5.65;;;;;;;29.13;36.17;100576.83;1720817;81;21307;-67
2021/08/27 10:37:49;;;;;;;11.78;5.92;;;;;;;29.18;36.01;100580.95;1724937;81;21347;-71
2021/08/27 10:40:34;;;;;;;15.80;5.50;;;;;;;29.12;36.12;100581.40;1783140;78;21263;-76
2021/08/27 10:43:06;;;;;;;14.28;5.50;;;;;;;29.04;36.37;100579.68;1732077;81;21744;-76
2021/08/27 10:45:51;;;;;;;10.13;5.37;;;;;;;28.86;36.19;100580.77;1795211;77;21886;-69
2021/08/27 10:48:25;;;;;;;19.65;5.45;;;;;;;28.66;36.84;100570.50;1786502;78;21859;-71
2021/08/27 10:51:00;;;;;;;10.60;5.75;;;;;;;28.50;37.39;100566.44;1732745;81;21201;-68
2021/08/27 10:53:35;;;;;;;11.83;5.28;;;;;;;28.47;37.60;100561.53;1798048;78;21362;-74
2021/08/27 10:56:12;;;;;;;10.35;5.72;;;;;;;28.40;37.36;100563.05;1749630;80;21276;-71
2021/08/27 10:58:49;;;;;;;14.03;5.47;;;;;;;28.34;37.62;100555.15;1785498;78;22455;-72
2021/08/27 11:01:33;;;;;;;13.72;5.87;;;;;;;28.30;37.84;100553.46;1769157;78;21855;-69
2021/08/27 11:04:26;;;;;;;15.60;6.20;;;;;;;28.26;38.38;100544.77;1792070;78;21189;-73
2021/08/27 11:07:08;;;;;;;;;;;;;;;28.20;38.35;100554.66;1787492;78;21723;-74
2021/08/27 11:09:36;;;;;;;8.78;5.53;;;;;;;28.12;38.54;100556.92;1784308;78;20229;-72
2021/08/27 11:12:18;;;;;;;8.25;5.05;;;;;;;28.08;38.37;100547.19;1785607;78;21141;-74
2021/08/27 11:14:56;;;;;;;9.50;5.97;;;;;;;28.09;38.05;100550.15;1785032;78;21200;-71
2021/08/27 11:17:29;;;;;;;10.90;5.47;;;;;;;28.10;38.13;100538.34;1787923;78;21579;-67
2021/08/27 11:20:02;;;;;;;11.28;5.37;;;;;;;28.11;38.20;100530.53;1748772;78;21264;-73
2021/08/27 11:22:35;;;;;;;8.73;5.30;;;;;;;28.19;38.21;100545.47;1728865;81;21335;-72
2021/08/27 11:25:13;;;;;;;10.65;5.83;;;;;;;28.22;38.31;100529.66;1796838;78;21836;-68
2021/08/27 11:28:17;;;;;;;21.42;6.55;;;;;;;28.24;38.13;100530.74;1733222;81;21351;-65
2021/08/27 11:31:12;;;;;;;13.85;6.35;;;;;;;28.18;38.67;100523.66;1798399;78;21325;-71
2021/08/27 11:33:50;;;;;;;14.70;6.00;;;;;;;28.14;39.03;100526.02;1795259;78;21149;-77
2021/08/27 11:36:23;;;;;;;20.82;6.45;;;;;;;28.15;39.12;100523.62;1724855;81;21732;-69
2021/08/27 11:38:58;;;;;;;17.85;6.55;;;;;;;28.14;38.90;100521.97;1793385;77;21424;-77
2021/08/27 11:41:31;;;;;;;18.30;6.33;;;;;;;28.14;39.15;100517.94;1789313;77;21301;-75
2021/08/27 11:44:06;;;;;;;12.37;5.12;;;;;;;28.17;39.09;100512.07;1806202;77;21295;-68
2021/08/27 11:46:40;;;;;;;9.53;5.10;;;;;;;28.21;38.51;100504.30;1754211;79;21252;-71
2021/08/27 11:49:28;;;;;;;21.25;7.50;;;;;;;28.23;38.45;100496.83;1725102;81;21308;-66
2021/08/27 11:52:15;;;;;;;10.72;5.33;;;;;;;28.27;39.37;100495.27;1735584;81;21827;-71
2021/08/27 11:54:49;;;;;;;10.70;5.00;;;;;;;28.36;39.08;100501.33;1730987;80;21300;-75
2021/08/27 11:57:22;;;;;;;12.47;5.50;;;;;;;28.41;39.30;100490.64;1729050;80;21913;-69
2021/08/27 12:00:11;;;;;;;;;;;;;;;28.47;39.39;100489.64;1727599;80;21228;-71
2021/08/27 12:02:44;;;;;;;10.20;5.28;;;;;;;28.54;39.08;100492.19;1728573;80;20198;-71
2021/08/27 12:05:17;;;;;;;10.78;5.65;;;;;;;28.56;38.76;100497.58;1731681;81;21295;-70
2021/08/27 12:08:01;;;;;;;8.38;5.03;;;;;;;28.57;38.37;100513.22;1738046;81;21212;-76
2021/08/27 12:10:37;;;;;;;35.85;22.37;;;;;;;28.51;38.30;100516.91;1727541;81;21193;-74
2021/08/27 12:13:12;;;;;;;81.65;48.15;;;;;;;28.38;38.33;100516.71;1736119;81;21318;-68
2021/08/27 12:15:45;;;;;;;28.75;14.80;;;;;;;28.29;38.52;100514.67;1755602;81;21200;-73
2021/08/27 12:18:19;;;;;;;25.15;14.47;;;;;;;28.24;38.52;100505.17;1736342;80;21899;-72
2021/08/27 12:20:52;;;;;;;11.03;6.45;;;;;;;28.20;38.53;100516.97;1730845;80;21197;-67
2021/08/27 12:23:25;;;;;;;12.75;5.53;;;;;;;28.18;38.51;100514.23;1765260;79;21268;-74
2021/08/27 12:26:02;;;;;;;22.42;7.42;;;;;;;28.16;38.75;100505.05;1766014;79;21312;-72
2021/08/27 12:28:35;;;;;;;13.45;5.62;;;;;;;28.17;38.70;100507.21;1759782;79;21312;-74
2021/08/27 12:31:09;;;;;;;17.23;6.60;;;;;;;28.16;38.64;100518.50;1730185;81;21798;-70
2021/08/27 12:33:44;;;;;;;12.33;5.42;;;;;;;28.16;39.50;100520.41;1740711;81;21185;-72
2021/08/27 12:36:17;;;;;;;8.80;4.72;;;;;;;28.14;39.83;100531.39;1760461;79;21281;-75
2021/08/27 12:38:50;;;;;;;11.78;5.35;;;;;;;28.09;39.60;100529.96;1761993;79;21309;-73
2021/08/27 12:41:24;;;;;;;20.05;5.53;;;;;;;28.02;39.77;100520.70;1731798;81;21208;-68
2021/08/27 12:44:14;;;;;;;16.80;5.95;;;;;;;27.97;39.92;100518.41;1700663;82;21298;-70
2021/08/27 12:46:49;;;;;;;25.30;6.30;;;;;;;27.91;40.25;100519.41;1727295;80;21299;-71
